sensor_id;sensor_type;location;lat;lon;timestamp;temperature;humidity
4697;DHT22;2362;50.780;0.292;2022-08-19T00:01:52;18.70;99.90
4697;DHT22;2362;50.780;0.292;2022-08-19T00:04:24;18.80;99.90
4697;DHT22;2362;50.780;0.292;2022-08-19T00:06:51;18.70;99.90
4697;DHT22;2362;50.780;0.292;2022-08-19T00:09:18;18.70;99.90
4697;DHT22;2362;50.780;0.292;2022-08-19T00:11:44;18.70;99.90
4697;DHT22;2362;50.780;0.292;2022-08-19T00:14:11;18.70;99.90
4697;DHT22;2362;50.780;0.292;2022-08-19T00:16:38;18.70;99.90
4697;DHT22;2362;50.780;0.292;2022-08-19T00:19:05;18.70;99.90
4697;DHT22;2362;50.780;0.292;2022-08-19T00:21:30;18.70;99.90
4697;DHT22;2362;50.780;0.292;2022-08-19T00:23:57;18.70;99.90
4697;DHT22;2362;50.780;0.292;2022-08-19T00:26:25;18.70;99.90
4697;DHT22;2362;50.780;0.292;2022-08-19T00:28:51;18.70;99.90
4697;DHT22;2362;50.780;0.292;2022-08-19T00:31:16;18.70;99.90
4697;DHT22;2362;50.780;0.292;2022-08-19T00:33:42;18.70;99.90
4697;DHT22;2362;50.780;0.292;2022-08-19T00:36:09;18.70;99.90
4697;DHT22;2362;50.780;0.292;2022-08-19T00:38:36;18.70;99.90
4697;DHT22;2362;50.780;0.292;2022-08-19T00:41:05;18.70;99.90
4697;DHT22;2362;50.780;0.292;2022-08-19T00:43:30;18.70;99.90
4697;DHT22;2362;50.780;0.292;2022-08-19T00:45:56;18.70;99.90
4697;DHT22;2362;50.780;0.292;2022-08-19T00:48:22;18.70;99.90
4697;DHT22;2362;50.780;0.292;2022-08-19T00:50:50;18.70;99.90
4697;DHT22;2362;50.780;0.292;2022-08-19T00:53:23;18.70;99.90
4697;DHT22;2362;50.780;0.292;2022-08-19T00:55:51;18.60;99.90
4697;DHT22;2362;50.780;0.292;2022-08-19T00:58:21;18.70;99.90
4697;DHT22;2362;50.780;0.292;2022-08-19T01:00:48;18.60;99.90
4697;DHT22;2362;50.780;0.292;2022-08-19T01:03:16;18.70;99.90
4697;DHT22;2362;50.780;0.292;2022-08-19T01:05:43;18.60;99.90
4697;DHT22;2362;50.780;0.292;2022-08-19T01:08:10;18.60;99.90
4697;DHT22;2362;50.780;0.292;2022-08-19T01:10:46;18.70;99.90
4697;DHT22;2362;50.780;0.292;2022-08-19T01:13:15;18.60;99.90
4697;DHT22;2362;50.780;0.292;2022-08-19T01:15:46;18.60;99.90
4697;DHT22;2362;50.780;0.292;2022-08-19T01:18:14;18.60;99.90
4697;DHT22;2362;50.780;0.292;2022-08-19T01:20:41;18.60;99.90
4697;DHT22;2362;50.780;0.292;2022-08-19T01:23:08;18.60;99.90
4697;DHT22;2362;50.780;0.292;2022-08-19T01:25:47;18.60;99.90
4697;DHT22;2362;50.780;0.292;2022-08-19T01:28:23;18.60;99.90
4697;DHT22;2362;50.780;0.292;2022-08-19T01:30:52;18.60;99.90
4697;DHT22;2362;50.780;0.292;2022-08-19T01:33:18;18.60;99.90
4697;DHT22;2362;50.780;0.292;2022-08-19T01:35:45;18.60;99.90
4697;DHT22;2362;50.780;0.292;2022-08-19T01:38:22;18.50;99.90
4697;DHT22;2362;50.780;0.292;2022-08-19T01:40:49;18.50;99.90
4697;DHT22;2362;50.780;0.292;2022-08-19T01:43:14;18.60;99.90
4697;DHT22;2362;50.780;0.292;2022-08-19T01:45:41;18.60;99.90
4697;DHT22;2362;50.780;0.292;2022-08-19T01:48:07;18.60;99.90
4697;DHT22;2362;50.780;0.292;2022-08-19T01:50:35;18.60;99.90
4697;DHT22;2362;50.780;0.292;2022-08-19T01:53:03;18.60;99.90
4697;DHT22;2362;50.780;0.292;2022-08-19T01:55:30;18.60;99.90
4697;DHT22;2362;50.780;0.292;2022-08-19T01:57:58;18.60;99.90
4697;DHT22;2362;50.780;0.292;2022-08-19T02:00:26;18.60;99.90
4697;DHT22;2362;50.780;0.292;2022-08-19T02:02:53;18.60;99.90
4697;DHT22;2362;50.780;0.292;2022-08-19T02:05:19;18.50;99.90
4697;DHT22;2362;50.780;0.292;2022-08-19T02:07:47;18.60;99.90
4697;DHT22;2362;50.780;0.292;2022-08-19T02:10:20;18.60;99.90
4697;DHT22;2362;50.780;0.292;2022-08-19T02:12:46;18.60;99.90
4697;DHT22;2362;50.780;0.292;2022-08-19T02:15:13;18.60;99.90
4697;DHT22;2362;50.780;0.292;2022-08-19T02:17:39;18.60;99.90
4697;DHT22;2362;50.780;0.292;2022-08-19T02:20:05;18.60;99.90
4697;DHT22;2362;50.780;0.292;2022-08-19T02:22:32;18.50;99.90
4697;DHT22;2362;50.780;0.292;2022-08-19T02:24:58;18.50;99.90
4697;DHT22;2362;50.780;0.292;2022-08-19T02:27:24;18.50;99.90
4697;DHT22;2362;50.780;0.292;2022-08-19T02:29:50;18.50;99.90
4697;DHT22;2362;50.780;0.292;2022-08-19T02:32:17;18.50;99.90
4697;DHT22;2362;50.780;0.292;2022-08-19T02:34:45;18.50;99.90
4697;DHT22;2362;50.780;0.292;2022-08-19T02:37:11;18.50;99.90
4697;DHT22;2362;50.780;0.292;2022-08-19T02:39:56;18.50;99.90
4697;DHT22;2362;50.780;0.292;2022-08-19T02:42:23;18.60;99.90
4697;DHT22;2362;50.780;0.292;2022-08-19T02:44:48;18.60;99.90
4697;DHT22;2362;50.780;0.292;2022-08-19T02:47:14;18.50;99.90
4697;DHT22;2362;50.780;0.292;2022-08-19T02:49:41;18.50;99.90
4697;DHT22;2362;50.780;0.292;2022-08-19T02:52:06;18.50;99.90
4697;DHT22;2362;50.780;0.292;2022-08-19T02:54:32;18.60;99.90
4697;DHT22;2362;50.780;0.292;2022-08-19T02:56:58;18.50;99.90
4697;DHT22;2362;50.780;0.292;2022-08-19T02:59:24;18.60;99.90
4697;DHT22;2362;50.780;0.292;2022-08-19T03:01:52;18.50;99.90
4697;DHT22;2362;50.780;0.292;2022-08-19T03:04:17;18.60;99.90
4697;DHT22;2362;50.780;0.292;2022-08-19T03:06:45;18.60;99.90
4697;DHT22;2362;50.780;0.292;2022-08-19T03:09:12;18.50;99.90
4697;DHT22;2362;50.780;0.292;2022-08-19T03:11:38;18.50;99.90
4697;DHT22;2362;50.780;0.292;2022-08-19T03:14:07;18.50;99.90
4697;DHT22;2362;50.780;0.292;2022-08-19T03:16:39;18.40;99.90
4697;DHT22;2362;50.780;0.292;2022-08-19T03:19:06;18.40;99.90
4697;DHT22;2362;50.780;0.292;2022-08-19T03:21:33;18.40;99.90
4697;DHT22;2362;50.780;0.292;2022-08-19T03:24:01;18.50;99.90
4697;DHT22;2362;50.780;0.292;2022-08-19T03:26:28;18.50;99.90
4697;DHT22;2362;50.780;0.292;2022-08-19T03:28:54;18.50;99.90
4697;DHT22;2362;50.780;0.292;2022-08-19T03:31:21;18.50;99.90
4697;DHT22;2362;50.780;0.292;2022-08-19T03:33:52;18.40;99.90
4697;DHT22;2362;50.780;0.292;2022-08-19T03:36:24;18.40;99.90
4697;DHT22;2362;50.780;0.292;2022-08-19T03:38:53;18.40;99.90
4697;DHT22;2362;50.780;0.292;2022-08-19T03:41:26;18.40;99.90
4697;DHT22;2362;50.780;0.292;2022-08-19T03:43:52;18.40;99.90
4697;DHT22;2362;50.780;0.292;2022-08-19T03:46:21;18.40;99.90
4697;DHT22;2362;50.780;0.292;2022-08-19T03:48:48;18.30;99.90
4697;DHT22;2362;50.780;0.292;2022-08-19T03:51:31;18.30;99.90
4697;DHT22;2362;50.780;0.292;2022-08-19T03:53:58;18.30;99.90
4697;DHT22;2362;50.780;0.292;2022-08-19T03:56:25;18.40;99.90
4697;DHT22;2362;50.780;0.292;2022-08-19T03:58:52;18.40;99.90
4697;DHT22;2362;50.780;0.292;2022-08-19T04:01:20;18.40;99.90
4697;DHT22;2362;50.780;0.292;2022-08-19T04:03:47;18.40;99.90
4697;DHT22;2362;50.780;0.292;2022-08-19T04:06:20;18.40;99.90
4697;DHT22;2362;50.780;0.292;2022-08-19T04:08:47;18.40;99.90
4697;DHT22;2362;50.780;0.292;2022-08-19T04:11:16;18.40;99.90
4697;DHT22;2362;50.780;0.292;2022-08-19T04:13:41;18.40;99.90
4697;DHT22;2362;50.780;0.292;2022-08-19T04:16:10;18.50;99.90
4697;DHT22;2362;50.780;0.292;2022-08-19T04:18:38;18.50;99.90
4697;DHT22;2362;50.780;0.292;2022-08-19T04:21:04;18.50;99.90
4697;DHT22;2362;50.780;0.292;2022-08-19T04:23:31;18.50;99.90
4697;DHT22;2362;50.780;0.292;2022-08-19T04:25:58;18.50;99.90
4697;DHT22;2362;50.780;0.292;2022-08-19T04:28:24;18.50;99.90
4697;DHT22;2362;50.780;0.292;2022-08-19T04:30:53;18.50;99.90
4697;DHT22;2362;50.780;0.292;2022-08-19T04:33:21;18.50;99.90
4697;DHT22;2362;50.780;0.292;2022-08-19T04:35:49;18.50;99.90
4697;DHT22;2362;50.780;0.292;2022-08-19T04:38:16;18.50;99.90
4697;DHT22;2362;50.780;0.292;2022-08-19T04:40:45;18.50;99.90
4697;DHT22;2362;50.780;0.292;2022-08-19T04:43:30;18.60;99.90
4697;DHT22;2362;50.780;0.292;2022-08-19T04:45:56;18.50;99.90
4697;DHT22;2362;50.780;0.292;2022-08-19T04:48:22;18.60;99.90
4697;DHT22;2362;50.780;0.292;2022-08-19T04:50:56;18.60;99.90
4697;DHT22;2362;50.780;0.292;2022-08-19T04:53:25;18.50;99.90
4697;DHT22;2362;50.780;0.292;2022-08-19T04:55:52;18.50;99.90
4697;DHT22;2362;50.780;0.292;2022-08-19T04:58:18;18.50;99.90
4697;DHT22;2362;50.780;0.292;2022-08-19T05:00:43;18.50;99.90
4697;DHT22;2362;50.780;0.292;2022-08-19T05:03:09;18.50;99.90
4697;DHT22;2362;50.780;0.292;2022-08-19T05:05:42;18.50;99.90
4697;DHT22;2362;50.780;0.292;2022-08-19T05:08:09;18.50;99.90
4697;DHT22;2362;50.780;0.292;2022-08-19T05:10:36;18.50;99.90
4697;DHT22;2362;50.780;0.292;2022-08-19T05:13:02;18.50;99.90
4697;DHT22;2362;50.780;0.292;2022-08-19T05:15:28;18.50;99.90
4697;DHT22;2362;50.780;0.292;2022-08-19T05:17:53;18.50;99.90
4697;DHT22;2362;50.780;0.292;2022-08-19T05:20:38;18.50;99.90
4697;DHT22;2362;50.780;0.292;2022-08-19T05:23:22;18.60;99.90
4697;DHT22;2362;50.780;0.292;2022-08-19T05:25:49;18.60;99.90
4697;DHT22;2362;50.780;0.292;2022-08-19T05:28:15;18.60;99.90
4697;DHT22;2362;50.780;0.292;2022-08-19T05:30:41;18.60;99.90
4697;DHT22;2362;50.780;0.292;2022-08-19T05:33:11;18.70;99.90
4697;DHT22;2362;50.780;0.292;2022-08-19T05:35:40;18.70;99.90
4697;DHT22;2362;50.780;0.292;2022-08-19T05:38:07;18.70;99.90
4697;DHT22;2362;50.780;0.292;2022-08-19T05:40:35;18.70;99.90
4697;DHT22;2362;50.780;0.292;2022-08-19T05:43:07;18.80;99.90
4697;DHT22;2362;50.780;0.292;2022-08-19T05:45:39;18.80;99.90
4697;DHT22;2362;50.780;0.292;2022-08-19T05:48:05;18.80;99.90
4697;DHT22;2362;50.780;0.292;2022-08-19T05:50:30;18.80;99.90
4697;DHT22;2362;50.780;0.292;2022-08-19T05:52:56;18.80;99.90
4697;DHT22;2362;50.780;0.292;2022-08-19T05:55:22;18.80;99.90
4697;DHT22;2362;50.780;0.292;2022-08-19T05:57:48;18.80;99.90
4697;DHT22;2362;50.780;0.292;2022-08-19T06:00:14;18.80;99.90
4697;DHT22;2362;50.780;0.292;2022-08-19T06:02:41;18.80;99.90
4697;DHT22;2362;50.780;0.292;2022-08-19T06:05:07;18.80;99.90
4697;DHT22;2362;50.780;0.292;2022-08-19T06:07:38;18.80;99.90
4697;DHT22;2362;50.780;0.292;2022-08-19T06:10:06;19.00;99.90
4697;DHT22;2362;50.780;0.292;2022-08-19T06:12:33;19.50;99.90
4697;DHT22;2362;50.780;0.292;2022-08-19T06:15:04;19.40;99.90
4697;DHT22;2362;50.780;0.292;2022-08-19T06:17:30;19.30;99.90
4697;DHT22;2362;50.780;0.292;2022-08-19T06:19:56;19.40;99.90
4697;DHT22;2362;50.780;0.292;2022-08-19T06:22:23;20.20;99.90
4697;DHT22;2362;50.780;0.292;2022-08-19T06:24:49;20.90;99.90
4697;DHT22;2362;50.780;0.292;2022-08-19T06:27:18;21.00;99.90
4697;DHT22;2362;50.780;0.292;2022-08-19T06:29:44;20.40;99.90
4697;DHT22;2362;50.780;0.292;2022-08-19T06:32:10;20.10;99.90
4697;DHT22;2362;50.780;0.292;2022-08-19T06:34:36;20.00;99.90
4697;DHT22;2362;50.780;0.292;2022-08-19T06:37:03;19.90;99.90
4697;DHT22;2362;50.780;0.292;2022-08-19T06:39:31;19.90;99.90
4697;DHT22;2362;50.780;0.292;2022-08-19T06:42:00;20.00;99.90
4697;DHT22;2362;50.780;0.292;2022-08-19T06:44:28;21.00;99.90
4697;DHT22;2362;50.780;0.292;2022-08-19T06:46:55;21.30;99.90
4697;DHT22;2362;50.780;0.292;2022-08-19T06:49:21;21.10;99.90
4697;DHT22;2362;50.780;0.292;2022-08-19T06:51:48;20.90;99.90
4697;DHT22;2362;50.780;0.292;2022-08-19T06:54:15;20.80;99.90
4697;DHT22;2362;50.780;0.292;2022-08-19T06:56:41;20.70;99.90
4697;DHT22;2362;50.780;0.292;2022-08-19T06:59:10;20.70;99.90
4697;DHT22;2362;50.780;0.292;2022-08-19T07:01:41;20.60;99.90
4697;DHT22;2362;50.780;0.292;2022-08-19T07:04:08;20.70;99.90
4697;DHT22;2362;50.780;0.292;2022-08-19T07:06:35;20.70;99.90
4697;DHT22;2362;50.780;0.292;2022-08-19T07:09:01;20.70;99.90
4697;DHT22;2362;50.780;0.292;2022-08-19T07:11:27;20.70;99.90
4697;DHT22;2362;50.780;0.292;2022-08-19T07:13:53;20.80;99.90
4697;DHT22;2362;50.780;0.292;2022-08-19T07:16:20;20.80;99.90
4697;DHT22;2362;50.780;0.292;2022-08-19T07:18:47;20.70;99.90
4697;DHT22;2362;50.780;0.292;2022-08-19T07:21:20;20.60;99.90
4697;DHT22;2362;50.780;0.292;2022-08-19T07:23:48;20.50;99.90
4697;DHT22;2362;50.780;0.292;2022-08-19T07:26:20;20.40;99.90
4697;DHT22;2362;50.780;0.292;2022-08-19T07:28:47;20.30;99.90
4697;DHT22;2362;50.780;0.292;2022-08-19T07:31:17;20.30;99.90
4697;DHT22;2362;50.780;0.292;2022-08-19T07:33:47;20.20;99.90
4697;DHT22;2362;50.780;0.292;2022-08-19T07:36:15;20.20;99.90
4697;DHT22;2362;50.780;0.292;2022-08-19T07:38:44;20.10;99.90
4697;DHT22;2362;50.780;0.292;2022-08-19T07:41:12;20.10;99.90
4697;DHT22;2362;50.780;0.292;2022-08-19T07:43:39;20.10;99.90
4697;DHT22;2362;50.780;0.292;2022-08-19T07:46:06;20.10;99.90
4697;DHT22;2362;50.780;0.292;2022-08-19T07:48:32;20.10;99.90
4697;DHT22;2362;50.780;0.292;2022-08-19T07:51:01;20.10;99.90
4697;DHT22;2362;50.780;0.292;2022-08-19T07:53:29;20.10;99.90
4697;DHT22;2362;50.780;0.292;2022-08-19T07:55:55;20.20;99.90
4697;DHT22;2362;50.780;0.292;2022-08-19T07:58:23;20.30;99.90
4697;DHT22;2362;50.780;0.292;2022-08-19T08:00:50;20.40;99.90
4697;DHT22;2362;50.780;0.292;2022-08-19T08:03:19;20.50;99.90
4697;DHT22;2362;50.780;0.292;2022-08-19T08:05:46;20.50;99.90
4697;DHT22;2362;50.780;0.292;2022-08-19T08:08:30;20.50;99.90
4697;DHT22;2362;50.780;0.292;2022-08-19T08:11:19;20.50;99.90
4697;DHT22;2362;50.780;0.292;2022-08-19T08:13:45;20.70;99.90
4697;DHT22;2362;50.780;0.292;2022-08-19T08:16:11;21.60;99.90
4697;DHT22;2362;50.780;0.292;2022-08-19T08:18:36;22.30;99.90
4697;DHT22;2362;50.780;0.292;2022-08-19T08:21:06;22.40;99.90
4697;DHT22;2362;50.780;0.292;2022-08-19T08:23:32;22.50;99.90
4697;DHT22;2362;50.780;0.292;2022-08-19T08:25:58;23.50;99.90
4697;DHT22;2362;50.780;0.292;2022-08-19T08:28:25;23.60;99.90
4697;DHT22;2362;50.780;0.292;2022-08-19T08:30:52;23.30;99.90
4697;DHT22;2362;50.780;0.292;2022-08-19T08:33:23;23.10;99.90
4697;DHT22;2362;50.780;0.292;2022-08-19T08:35:49;23.40;99.90
4697;DHT22;2362;50.780;0.292;2022-08-19T08:38:15;24.30;99.90
4697;DHT22;2362;50.780;0.292;2022-08-19T08:40:53;24.60;99.90
4697;DHT22;2362;50.780;0.292;2022-08-19T08:43:32;24.20;99.90
4697;DHT22;2362;50.780;0.292;2022-08-19T08:46:05;23.80;99.90
4697;DHT22;2362;50.780;0.292;2022-08-19T08:48:56;23.50;99.90
4697;DHT22;2362;50.780;0.292;2022-08-19T08:51:35;23.40;99.90
4697;DHT22;2362;50.780;0.292;2022-08-19T08:54:05;23.40;99.90
4697;DHT22;2362;50.780;0.292;2022-08-19T08:56:32;23.40;99.90
4697;DHT22;2362;50.780;0.292;2022-08-19T09:01:25;23.00;99.90
4697;DHT22;2362;50.780;0.292;2022-08-19T09:03:52;22.70;99.90
4697;DHT22;2362;50.780;0.292;2022-08-19T09:09:13;22.30;99.90
4697;DHT22;2362;50.780;0.292;2022-08-19T09:16:58;23.00;99.90
4697;DHT22;2362;50.780;0.292;2022-08-19T09:19:24;23.20;99.90
4697;DHT22;2362;50.780;0.292;2022-08-19T09:21:50;23.10;99.90
4697;DHT22;2362;50.780;0.292;2022-08-19T09:24:16;23.00;99.90
4697;DHT22;2362;50.780;0.292;2022-08-19T09:26:42;23.00;99.90
4697;DHT22;2362;50.780;0.292;2022-08-19T09:29:09;22.80;99.90
4697;DHT22;2362;50.780;0.292;2022-08-19T09:31:36;22.70;99.90
4697;DHT22;2362;50.780;0.292;2022-08-19T09:34:02;22.60;99.90
4697;DHT22;2362;50.780;0.292;2022-08-19T09:36:30;22.30;99.90
4697;DHT22;2362;50.780;0.292;2022-08-19T09:39:05;22.20;99.90
4697;DHT22;2362;50.780;0.292;2022-08-19T09:41:31;21.90;99.90
4697;DHT22;2362;50.780;0.292;2022-08-19T09:43:58;21.90;99.90
4697;DHT22;2362;50.780;0.292;2022-08-19T09:46:26;22.00;99.90
4697;DHT22;2362;50.780;0.292;2022-08-19T09:48:53;22.30;99.90
4697;DHT22;2362;50.780;0.292;2022-08-19T09:51:24;22.50;99.90
4697;DHT22;2362;50.780;0.292;2022-08-19T09:53:52;22.80;99.90
4697;DHT22;2362;50.780;0.292;2022-08-19T09:56:21;22.80;99.90
4697;DHT22;2362;50.780;0.292;2022-08-19T09:58:48;23.20;99.90
4697;DHT22;2362;50.780;0.292;2022-08-19T10:01:23;23.30;99.90
4697;DHT22;2362;50.780;0.292;2022-08-19T10:03:51;23.30;99.90
4697;DHT22;2362;50.780;0.292;2022-08-19T10:06:19;23.20;99.90
4697;DHT22;2362;50.780;0.292;2022-08-19T10:08:46;23.10;99.90
4697;DHT22;2362;50.780;0.292;2022-08-19T10:11:13;23.10;99.90
4697;DHT22;2362;50.780;0.292;2022-08-19T10:13:42;23.00;99.90
4697;DHT22;2362;50.780;0.292;2022-08-19T10:16:12;22.80;99.90
4697;DHT22;2362;50.780;0.292;2022-08-19T10:18:37;23.00;99.90
4697;DHT22;2362;50.780;0.292;2022-08-19T10:21:19;23.20;99.90
4697;DHT22;2362;50.780;0.292;2022-08-19T10:23:48;23.30;99.90
4697;DHT22;2362;50.780;0.292;2022-08-19T10:26:16;23.40;99.90
4697;DHT22;2362;50.780;0.292;2022-08-19T10:28:42;23.60;99.90
4697;DHT22;2362;50.780;0.292;2022-08-19T10:31:11;24.10;99.90
4697;DHT22;2362;50.780;0.292;2022-08-19T10:33:39;24.10;99.90
4697;DHT22;2362;50.780;0.292;2022-08-19T10:36:11;24.00;99.90
4697;DHT22;2362;50.780;0.292;2022-08-19T10:38:40;24.10;99.90
4697;DHT22;2362;50.780;0.292;2022-08-19T10:41:15;24.00;99.90
4697;DHT22;2362;50.780;0.292;2022-08-19T10:43:41;23.70;99.90
4697;DHT22;2362;50.780;0.292;2022-08-19T10:46:10;23.30;99.90
4697;DHT22;2362;50.780;0.292;2022-08-19T10:48:36;23.10;99.90
4697;DHT22;2362;50.780;0.292;2022-08-19T10:51:03;23.10;99.90
4697;DHT22;2362;50.780;0.292;2022-08-19T10:53:47;23.00;99.90
4697;DHT22;2362;50.780;0.292;2022-08-19T10:56:13;22.90;99.90
4697;DHT22;2362;50.780;0.292;2022-08-19T10:59:03;22.90;99.90
4697;DHT22;2362;50.780;0.292;2022-08-19T11:01:30;23.00;99.90
4697;DHT22;2362;50.780;0.292;2022-08-19T11:03:59;23.30;99.90
4697;DHT22;2362;50.780;0.292;2022-08-19T11:06:25;23.40;99.90
4697;DHT22;2362;50.780;0.292;2022-08-19T11:08:54;23.50;99.90
4697;DHT22;2362;50.780;0.292;2022-08-19T11:11:20;23.50;99.90
4697;DHT22;2362;50.780;0.292;2022-08-19T11:13:47;23.80;99.90
4697;DHT22;2362;50.780;0.292;2022-08-19T11:16:20;24.00;99.90
4697;DHT22;2362;50.780;0.292;2022-08-19T11:18:52;24.10;99.90
4697;DHT22;2362;50.780;0.292;2022-08-19T11:21:25;24.20;99.90
4697;DHT22;2362;50.780;0.292;2022-08-19T11:23:54;24.10;99.90
4697;DHT22;2362;50.780;0.292;2022-08-19T11:26:21;23.90;99.90
4697;DHT22;2362;50.780;0.292;2022-08-19T11:28:47;23.90;99.90
4697;DHT22;2362;50.780;0.292;2022-08-19T11:31:18;23.50;99.90
4697;DHT22;2362;50.780;0.292;2022-08-19T11:33:44;23.10;99.90
4697;DHT22;2362;50.780;0.292;2022-08-19T11:36:12;22.80;99.90
4697;DHT22;2362;50.780;0.292;2022-08-19T11:38:45;22.40;99.90
4697;DHT22;2362;50.780;0.292;2022-08-19T11:41:14;22.20;99.90
4697;DHT22;2362;50.780;0.292;2022-08-19T11:43:40;22.10;99.90
4697;DHT22;2362;50.780;0.292;2022-08-19T11:46:09;22.10;99.90
4697;DHT22;2362;50.780;0.292;2022-08-19T11:48:36;21.90;99.90
4697;DHT22;2362;50.780;0.292;2022-08-19T11:51:14;21.70;99.90
4697;DHT22;2362;50.780;0.292;2022-08-19T11:53:40;21.60;99.90
4697;DHT22;2362;50.780;0.292;2022-08-19T11:56:07;21.60;99.90
4697;DHT22;2362;50.780;0.292;2022-08-19T11:58:34;21.90;99.90
4697;DHT22;2362;50.780;0.292;2022-08-19T12:01:00;21.90;99.90
4697;DHT22;2362;50.780;0.292;2022-08-19T12:03:26;21.90;99.90
4697;DHT22;2362;50.780;0.292;2022-08-19T12:05:53;22.00;99.90
4697;DHT22;2362;50.780;0.292;2022-08-19T12:08:19;22.10;99.90
4697;DHT22;2362;50.780;0.292;2022-08-19T12:10:44;22.30;99.90
4697;DHT22;2362;50.780;0.292;2022-08-19T12:13:11;22.30;99.90
4697;DHT22;2362;50.780;0.292;2022-08-19T12:15:40;22.40;99.90
4697;DHT22;2362;50.780;0.292;2022-08-19T12:18:07;22.50;99.90
4697;DHT22;2362;50.780;0.292;2022-08-19T12:20:35;22.60;99.90
4697;DHT22;2362;50.780;0.292;2022-08-19T12:23:02;22.60;99.90
4697;DHT22;2362;50.780;0.292;2022-08-19T12:25:27;22.90;99.90
4697;DHT22;2362;50.780;0.292;2022-08-19T12:27:53;22.80;99.90
4697;DHT22;2362;50.780;0.292;2022-08-19T12:30:20;22.90;99.90
4697;DHT22;2362;50.780;0.292;2022-08-19T12:32:46;22.90;99.90
4697;DHT22;2362;50.780;0.292;2022-08-19T12:35:11;22.80;99.90
4697;DHT22;2362;50.780;0.292;2022-08-19T12:37:38;22.60;99.90
4697;DHT22;2362;50.780;0.292;2022-08-19T12:40:05;22.90;99.90
4697;DHT22;2362;50.780;0.292;2022-08-19T12:42:30;23.00;99.90
4697;DHT22;2362;50.780;0.292;2022-08-19T12:44:56;23.30;99.90
4697;DHT22;2362;50.780;0.292;2022-08-19T12:47:22;23.50;99.90
4697;DHT22;2362;50.780;0.292;2022-08-19T12:49:48;23.60;99.90
4697;DHT22;2362;50.780;0.292;2022-08-19T12:52:14;23.60;99.90
4697;DHT22;2362;50.780;0.292;2022-08-19T12:54:46;23.70;99.90
4697;DHT22;2362;50.780;0.292;2022-08-19T12:57:12;23.70;99.90
4697;DHT22;2362;50.780;0.292;2022-08-19T12:59:38;23.60;99.90
4697;DHT22;2362;50.780;0.292;2022-08-19T13:02:05;23.80;99.90
4697;DHT22;2362;50.780;0.292;2022-08-19T13:04:33;24.00;99.90
4697;DHT22;2362;50.780;0.292;2022-08-19T13:07:02;24.20;99.90
4697;DHT22;2362;50.780;0.292;2022-08-19T13:09:28;24.30;99.90
4697;DHT22;2362;50.780;0.292;2022-08-19T13:11:53;24.30;99.90
4697;DHT22;2362;50.780;0.292;2022-08-19T13:14:19;23.80;99.90
4697;DHT22;2362;50.780;0.292;2022-08-19T13:16:44;23.80;99.90
4697;DHT22;2362;50.780;0.292;2022-08-19T13:19:10;23.70;99.90
4697;DHT22;2362;50.780;0.292;2022-08-19T13:21:37;22.90;99.90
4697;DHT22;2362;50.780;0.292;2022-08-19T13:24:03;22.30;99.90
4697;DHT22;2362;50.780;0.292;2022-08-19T13:26:29;21.90;99.90
4697;DHT22;2362;50.780;0.292;2022-08-19T13:28:55;21.80;99.90
4697;DHT22;2362;50.780;0.292;2022-08-19T13:31:41;21.90;99.90
4697;DHT22;2362;50.780;0.292;2022-08-19T13:34:35;22.10;99.90
4697;DHT22;2362;50.780;0.292;2022-08-19T13:37:03;21.90;99.90
4697;DHT22;2362;50.780;0.292;2022-08-19T13:39:30;21.80;99.90
4697;DHT22;2362;50.780;0.292;2022-08-19T13:41:55;22.00;99.90
4697;DHT22;2362;50.780;0.292;2022-08-19T13:44:21;21.90;99.90
4697;DHT22;2362;50.780;0.292;2022-08-19T13:46:48;21.90;99.90
4697;DHT22;2362;50.780;0.292;2022-08-19T13:49:15;22.10;99.90
4697;DHT22;2362;50.780;0.292;2022-08-19T13:51:42;22.20;99.90
4697;DHT22;2362;50.780;0.292;2022-08-19T13:54:09;22.40;99.90
4697;DHT22;2362;50.780;0.292;2022-08-19T13:56:39;22.40;99.90
4697;DHT22;2362;50.780;0.292;2022-08-19T13:59:05;22.40;99.90
4697;DHT22;2362;50.780;0.292;2022-08-19T14:01:31;22.60;99.90
4697;DHT22;2362;50.780;0.292;2022-08-19T14:03:56;22.80;99.90
4697;DHT22;2362;50.780;0.292;2022-08-19T14:06:22;22.80;99.90
4697;DHT22;2362;50.780;0.292;2022-08-19T14:08:48;22.80;99.90
4697;DHT22;2362;50.780;0.292;2022-08-19T14:11:14;22.80;99.90
4697;DHT22;2362;50.780;0.292;2022-08-19T14:13:40;22.80;99.90
4697;DHT22;2362;50.780;0.292;2022-08-19T14:16:10;22.70;99.90
4697;DHT22;2362;50.780;0.292;2022-08-19T14:18:36;22.80;99.90
4697;DHT22;2362;50.780;0.292;2022-08-19T14:21:03;22.90;99.90
4697;DHT22;2362;50.780;0.292;2022-08-19T14:23:31;23.00;99.90
4697;DHT22;2362;50.780;0.292;2022-08-19T14:26:04;23.20;99.90
4697;DHT22;2362;50.780;0.292;2022-08-19T14:28:30;23.50;99.90
4697;DHT22;2362;50.780;0.292;2022-08-19T14:30:56;23.60;99.90
4697;DHT22;2362;50.780;0.292;2022-08-19T14:33:22;23.80;99.90
4697;DHT22;2362;50.780;0.292;2022-08-19T14:35:47;24.00;99.90
4697;DHT22;2362;50.780;0.292;2022-08-19T14:38:20;23.90;99.90
4697;DHT22;2362;50.780;0.292;2022-08-19T14:40:45;23.70;99.90
4697;DHT22;2362;50.780;0.292;2022-08-19T14:43:12;23.50;99.90
4697;DHT22;2362;50.780;0.292;2022-08-19T14:45:39;23.40;99.90
4697;DHT22;2362;50.780;0.292;2022-08-19T14:48:06;23.50;99.90
4697;DHT22;2362;50.780;0.292;2022-08-19T14:50:32;23.40;99.90
4697;DHT22;2362;50.780;0.292;2022-08-19T14:53:05;23.20;99.90
4697;DHT22;2362;50.780;0.292;2022-08-19T14:55:31;23.00;99.90
4697;DHT22;2362;50.780;0.292;2022-08-19T14:57:58;22.90;99.90
4697;DHT22;2362;50.780;0.292;2022-08-19T15:00:24;22.70;99.90
4697;DHT22;2362;50.780;0.292;2022-08-19T15:02:50;22.60;99.90
4697;DHT22;2362;50.780;0.292;2022-08-19T15:05:17;22.60;99.90
4697;DHT22;2362;50.780;0.292;2022-08-19T15:07:44;22.60;99.90
4697;DHT22;2362;50.780;0.292;2022-08-19T15:10:11;22.60;99.90
4697;DHT22;2362;50.780;0.292;2022-08-19T15:12:38;22.60;99.90
4697;DHT22;2362;50.780;0.292;2022-08-19T15:15:13;22.50;99.90
4697;DHT22;2362;50.780;0.292;2022-08-19T15:17:40;22.60;99.90
4697;DHT22;2362;50.780;0.292;2022-08-19T15:20:07;22.60;99.90
4697;DHT22;2362;50.780;0.292;2022-08-19T15:22:33;22.70;99.90
4697;DHT22;2362;50.780;0.292;2022-08-19T15:25:01;22.50;99.90
4697;DHT22;2362;50.780;0.292;2022-08-19T15:27:27;22.50;99.90
4697;DHT22;2362;50.780;0.292;2022-08-19T15:29:53;22.20;99.90
4697;DHT22;2362;50.780;0.292;2022-08-19T15:32:18;22.00;99.90
4697;DHT22;2362;50.780;0.292;2022-08-19T15:34:44;22.00;99.90
4697;DHT22;2362;50.780;0.292;2022-08-19T15:37:11;22.00;99.90
4697;DHT22;2362;50.780;0.292;2022-08-19T15:39:36;22.00;99.90
4697;DHT22;2362;50.780;0.292;2022-08-19T15:42:02;21.90;99.90
4697;DHT22;2362;50.780;0.292;2022-08-19T15:44:28;21.80;99.90
4697;DHT22;2362;50.780;0.292;2022-08-19T15:46:54;21.80;99.90
4697;DHT22;2362;50.780;0.292;2022-08-19T15:49:20;21.70;99.90
4697;DHT22;2362;50.780;0.292;2022-08-19T15:51:48;21.60;99.90
4697;DHT22;2362;50.780;0.292;2022-08-19T15:54:17;21.60;99.90
4697;DHT22;2362;50.780;0.292;2022-08-19T15:56:47;21.50;99.90
4697;DHT22;2362;50.780;0.292;2022-08-19T15:59:32;21.40;99.90
4697;DHT22;2362;50.780;0.292;2022-08-19T16:02:18;21.40;99.90
4697;DHT22;2362;50.780;0.292;2022-08-19T16:05:05;21.30;99.90
4697;DHT22;2362;50.780;0.292;2022-08-19T16:07:49;21.30;99.90
4697;DHT22;2362;50.780;0.292;2022-08-19T16:10:15;21.30;99.90
4697;DHT22;2362;50.780;0.292;2022-08-19T16:12:41;21.50;99.90
4697;DHT22;2362;50.780;0.292;2022-08-19T16:15:11;21.60;99.90
4697;DHT22;2362;50.780;0.292;2022-08-19T16:17:38;21.70;99.90
4697;DHT22;2362;50.780;0.292;2022-08-19T16:20:05;21.60;99.90